Time;durP1;ratioP1;P1;durP2;ratioP2;P2;SDS_P1;SDS_P2;PMS_P1;PMS_P2;Temp;Humidity;BMP_temperature;BMP_pressure;BME280_temperature;BME280_humidity;BME280_pressure;Samples;Min_cycle;Max_cycle;Signal;HPM_P1;HPM_P2
2024/01/25 00:01:08;;;;;;;34.35;7.47;;;;;;;7.18;100.00;102786.31;5081427;28;20495;-82
2024/01/25 00:03:35;;;;;;;41.95;7.55;;;;;;;7.16;100.00;102789.75;5093738;28;20121;-82
2024/01/25 00:06:00;;;;;;;34.58;6.82;;;;;;;7.16;100.00;102774.84;5082216;28;20032;-83
2024/01/25 00:08:26;;;;;;;41.17;6.80;;;;;;;7.09;100.00;102767.66;5075386;28;20390;-83
2024/01/25 00:10:51;;;;;;;38.03;6.63;;;;;;;7.09;100.00;102783.44;5094752;28;20497;-83
2024/01/25 00:13:17;;;;;;;40.70;6.45;;;;;;;7.07;100.00;102793.06;5090646;28;20029;-83
2024/01/25 00:15:42;;;;;;;40.42;7.07;;;;;;;7.01;100.00;102779.75;5089251;28;20036;-83
2024/01/25 00:18:08;;;;;;;39.90;6.60;;;;;;;7.00;100.00;102770.09;5057749;28;20076;-82
2024/01/25 00:20:33;;;;;;;35.90;5.95;;;;;;;6.98;100.00;102783.22;5090525;28;20079;-83
2024/01/25 00:22:59;;;;;;;46.78;6.35;;;;;;;6.96;100.00;102791.94;5094813;28;20051;-83
2024/01/25 00:25:24;;;;;;;35.65;6.53;;;;;;;6.93;100.00;102799.75;5080532;28;20062;-83
2024/01/25 00:27:50;;;;;;;40.95;6.93;;;;;;;6.88;100.00;102797.91;5084710;28;20542;-83
2024/01/25 00:30:15;;;;;;;38.85;7.43;;;;;;;6.89;100.00;102793.50;5090959;28;20090;-83
2024/01/25 00:32:41;;;;;;;42.95;7.13;;;;;;;6.85;100.00;102786.41;5090769;28;20087;-82
2024/01/25 00:35:09;;;;;;;44.22;7.03;;;;;;;6.83;100.00;102781.09;5087882;28;20127;-81
2024/01/25 00:37:36;;;;;;;41.42;6.68;;;;;;;6.81;100.00;102781.91;5090140;28;20047;-82
2024/01/25 00:40:03;;;;;;;37.63;6.15;;;;;;;6.77;100.00;102786.19;5084162;28;20060;-82
2024/01/25 00:42:30;;;;;;;35.33;7.15;;;;;;;6.70;100.00;102781.66;5085191;28;20032;-83
2024/01/25 00:44:56;;;;;;;37.70;7.60;;;;;;;6.71;100.00;102793.94;5087675;28;20025;-82
2024/01/25 00:47:22;;;;;;;47.38;8.75;;;;;;;6.67;100.00;102797.34;5080564;28;20086;-82
2024/01/25 00:49:48;;;;;;;39.65;7.05;;;;;;;6.65;100.00;102797.31;5083134;28;20039;-82
2024/01/25 00:52:14;;;;;;;44.13;6.50;;;;;;;6.64;100.00;102807.81;5069403;28;20406;-83
2024/01/25 00:54:40;;;;;;;43.95;8.40;;;;;;;6.59;100.00;102806.78;5074548;28;20052;-82
2024/01/25 00:57:06;;;;;;;33.20;5.07;;;;;;;6.58;100.00;102811.19;5095445;28;20132;-82
2024/01/25 00:59:32;;;;;;;31.25;6.43;;;;;;;6.56;100.00;102812.88;5091918;28;20506;-82
2024/01/25 01:01:59;;;;;;;37.40;7.90;;;;;;;6.52;100.00;102813.63;5085644;28;20040;-83
2024/01/25 01:04:25;;;;;;;40.53;7.45;;;;;;;6.49;100.00;102800.41;5085054;28;20032;-82
2024/01/25 01:06:51;;;;;;;39.90;7.25;;;;;;;6.51;100.00;102806.59;5089435;28;20031;-82
2024/01/25 01:09:17;;;;;;;38.28;6.03;;;;;;;6.50;100.00;102811.81;5085490;28;20086;-82
2024/01/25 01:11:43;;;;;;;41.03;6.38;;;;;;;6.45;100.00;102817.88;5089412;28;20357;-82
2024/01/25 01:14:08;;;;;;;43.05;6.07;;;;;;;6.45;100.00;102816.94;5088367;28;20043;-83
2024/01/25 01:16:35;;;;;;;41.78;5.97;;;;;;;6.42;100.00;102816.88;5086778;28;20423;-82
2024/01/25 01:19:05;;;;;;;43.55;7.15;;;;;;;6.38;100.00;102822.88;5078978;28;20052;-82
2024/01/25 01:21:32;;;;;;;42.03;6.88;;;;;;;6.36;100.00;102820.25;5078173;28;20068;-83
2024/01/25 01:23:57;;;;;;;31.83;6.00;;;;;;;6.37;100.00;102815.84;5082277;28;20464;-82
2024/01/25 01:26:23;;;;;;;48.35;7.28;;;;;;;6.31;100.00;102815.72;5093980;28;20064;-82
2024/01/25 01:28:48;;;;;;;42.97;7.20;;;;;;;6.27;100.00;102819.09;5079471;28;20044;-83
2024/01/25 01:31:14;;;;;;;38.55;6.72;;;;;;;6.22;100.00;102816.34;5082842;28;20040;-83
2024/01/25 01:33:39;;;;;;;38.38;6.25;;;;;;;6.21;100.00;102820.72;5081403;28;20044;-83
2024/01/25 01:36:05;;;;;;;38.28;6.47;;;;;;;6.17;100.00;102824.09;5086456;28;20074;-83
2024/01/25 01:38:31;;;;;;;36.22;6.70;;;;;;;6.17;100.00;102826.72;5062769;28;20033;-82
2024/01/25 01:40:56;;;;;;;49.72;7.10;;;;;;;6.15;100.00;102831.03;5068259;28;20463;-82
2024/01/25 01:43:23;;;;;;;42.10;6.97;;;;;;;6.13;100.00;102831.84;5086440;28;20489;-82
2024/01/25 01:45:49;;;;;;;45.13;6.70;;;;;;;6.13;100.00;102837.09;5064573;28;20070;-83
2024/01/25 01:48:15;;;;;;;33.58;5.53;;;;;;;6.10;100.00;102848.44;5066087;28;20036;-82
2024/01/25 01:50:43;;;;;;;39.22;6.90;;;;;;;6.04;100.00;102850.91;5078591;28;20049;-82
2024/01/25 01:53:08;;;;;;;41.35;7.47;;;;;;;6.06;100.00;102857.09;5088267;28;20036;-83
2024/01/25 01:55:34;;;;;;;38.38;5.90;;;;;;;6.03;100.00;102852.66;5086289;28;20050;-82
2024/01/25 01:58:00;;;;;;;37.85;6.30;;;;;;;5.98;100.00;102856.88;5071669;28;20040;-83
2024/01/25 02:00:26;;;;;;;37.28;5.97;;;;;;;5.94;100.00;102847.13;5084354;28;20403;-83
2024/01/25 02:02:52;;;;;;;43.47;6.63;;;;;;;5.93;100.00;102860.16;5077953;28;20063;-82
2024/01/25 02:05:17;;;;;;;39.17;7.32;;;;;;;5.88;100.00;102862.66;5076382;28;20487;-82
2024/01/25 02:07:43;;;;;;;44.15;6.70;;;;;;;5.90;100.00;102871.50;5087814;28;20158;-82
2024/01/25 02:10:09;;;;;;;31.52;5.95;;;;;;;5.85;100.00;102867.84;5088009;28;20191;-82
2024/01/25 02:12:35;;;;;;;37.55;6.93;;;;;;;5.82;100.00;102881.78;5083305;28;20642;-82
2024/01/25 02:15:01;;;;;;;25.38;5.13;;;;;;;5.81;100.00;102884.34;5086972;28;20040;-82
2024/01/25 02:17:26;;;;;;;38.40;6.97;;;;;;;5.77;100.00;102879.88;5081169;28;20499;-83
2024/01/25 02:19:51;;;;;;;45.45;6.82;;;;;;;5.76;100.00;102885.94;5061169;28;20044;-82
2024/01/25 02:22:19;;;;;;;36.63;6.95;;;;;;;5.71;100.00;102879.66;5069310;28;20044;-82
2024/01/25 02:24:45;;;;;;;40.85;7.20;;;;;;;5.67;100.00;102876.06;5082914;28;20036;-82
2024/01/25 02:27:11;;;;;;;36.95;6.85;;;;;;;5.64;100.00;102889.13;5085460;28;20037;-82
2024/01/25 02:29:38;;;;;;;42.42;8.27;;;;;;;5.62;100.00;102885.53;5079383;28;20040;-82
2024/01/25 02:32:04;;;;;;;44.40;7.30;;;;;;;5.58;100.00;102884.53;5088665;28;20039;-82
2024/01/25 02:34:30;;;;;;;42.38;7.15;;;;;;;5.56;100.00;102883.63;5060978;28;20028;-82
2024/01/25 02:36:55;;;;;;;46.58;8.13;;;;;;;5.58;100.00;102883.66;5057065;28;20036;-83
2024/01/25 02:39:21;;;;;;;35.05;5.93;;;;;;;5.56;100.00;102882.69;5054210;28;20064;-82
2024/01/25 02:41:46;;;;;;;51.85;7.57;;;;;;;5.52;100.00;102889.63;5072809;28;20094;-82
2024/01/25 02:44:12;;;;;;;34.45;5.97;;;;;;;5.50;100.00;102898.28;5074646;28;20028;-82
2024/01/25 02:46:38;;;;;;;43.95;7.75;;;;;;;5.49;100.00;102894.78;5058399;28;20058;-82
2024/01/25 02:49:04;;;;;;;40.30;6.68;;;;;;;5.47;100.00;102877.19;5075140;28;20069;-82
2024/01/25 02:51:29;;;;;;;41.88;6.25;;;;;;;5.47;100.00;102888.56;5068881;28;20052;-82
2024/01/25 02:53:55;;;;;;;47.58;6.60;;;;;;;5.42;100.00;102890.16;5072631;28;20086;-82
2024/01/25 02:56:20;;;;;;;43.92;6.78;;;;;;;5.39;100.00;102890.97;5091255;28;20505;-83
2024/01/25 02:58:46;;;;;;;38.42;7.47;;;;;;;5.36;100.00;102874.19;5065084;28;20033;-82
2024/01/25 03:01:11;;;;;;;47.67;7.20;;;;;;;5.36;100.00;102880.31;5087195;28;20044;-82
2024/01/25 03:03:37;;;;;;;37.00;6.50;;;;;;;5.34;100.00;102876.78;5073036;28;20103;-82
2024/01/25 03:06:03;;;;;;;45.42;6.88;;;;;;;5.30;100.00;102877.53;5073030;28;20107;-82
2024/01/25 03:08:29;;;;;;;45.30;7.88;;;;;;;5.32;100.00;102888.09;5074422;28;20043;-82
2024/01/25 03:10:54;;;;;;;33.47;7.70;;;;;;;5.27;100.00;102884.44;5093068;28;20044;-81
2024/01/25 03:13:20;;;;;;;47.22;7.43;;;;;;;5.30;100.00;102888.03;5092967;28;20040;-82
2024/01/25 03:15:45;;;;;;;43.25;6.80;;;;;;;5.28;100.00;102886.19;5093057;28;20111;-82
2024/01/25 03:18:11;;;;;;;37.47;6.07;;;;;;;5.26;100.00;102886.13;5091110;28;20069;-82
2024/01/25 03:20:36;;;;;;;42.75;5.97;;;;;;;5.23;100.00;102885.16;5062326;28;20046;-81
2024/01/25 03:23:02;;;;;;;53.17;7.57;;;;;;;5.18;100.00;102878.00;5079025;28;20403;-81
2024/01/25 03:25:28;;;;;;;34.00;5.80;;;;;;;5.17;100.00;102881.50;5072518;28;20075;-81
2024/01/25 03:27:53;;;;;;;39.50;7.32;;;;;;;5.13;100.00;102887.47;5072242;28;20503;-81
2024/01/25 03:30:19;;;;;;;32.80;6.07;;;;;;;5.07;100.00;102883.72;5071666;28;20058;-80
2024/01/25 03:32:46;;;;;;;38.45;6.28;;;;;;;5.08;100.00;102890.78;5068380;28;20348;-81
2024/01/25 03:35:11;;;;;;;37.05;6.63;;;;;;;5.03;100.00;102881.88;5083572;28;20366;-81
2024/01/25 03:37:37;;;;;;;31.20;5.88;;;;;;;5.03;100.00;102888.00;5053654;28;20041;-81
2024/01/25 03:40:03;;;;;;;43.55;7.38;;;;;;;4.99;100.00;102898.34;5082522;28;20115;-81
2024/01/25 03:42:28;;;;;;;41.00;6.43;;;;;;;4.93;100.00;102897.28;5078753;28;20029;-81
2024/01/25 03:44:54;;;;;;;45.92;6.72;;;;;;;4.93;100.00;102904.28;5080867;28;20499;-81
2024/01/25 03:47:19;;;;;;;29.60;6.03;;;;;;;4.88;100.00;102904.13;5076075;28;20044;-81
2024/01/25 03:49:45;;;;;;;34.03;6.50;;;;;;;4.87;100.00;102910.22;5086145;28;20024;-81
2024/01/25 03:52:10;;;;;;;35.05;6.40;;;;;;;4.84;100.00;102896.97;5068016;28;20052;-81
2024/01/25 03:54:38;;;;;;;38.65;6.70;;;;;;;4.83;100.00;102891.69;5062945;28;20123;-81
2024/01/25 03:57:04;;;;;;;49.85;7.10;;;;;;;4.79;100.00;102906.41;5087919;28;20507;-81
2024/01/25 03:59:30;;;;;;;32.83;6.72;;;;;;;4.77;100.00;102901.97;5067742;28;20029;-81
2024/01/25 04:01:55;;;;;;;31.35;6.05;;;;;;;4.74;100.00;102900.13;5066882;28;20541;-81
2024/01/25 04:04:21;;;;;;;41.65;7.60;;;;;;;4.72;100.00;102907.03;5065375;28;20144;-81
2024/01/25 04:06:47;;;;;;;31.73;5.50;;;;;;;4.66;100.00;102905.09;5052432;28;20045;-81
2024/01/25 04:09:13;;;;;;;35.20;6.40;;;;;;;4.62;100.00;102905.81;5050614;28;20139;-81
2024/01/25 04:11:39;;;;;;;42.90;6.40;;;;;;;4.57;100.00;102917.88;5061548;28;20123;-81
2024/01/25 04:14:04;;;;;;;39.00;7.05;;;;;;;4.56;100.00;102912.59;5069100;28;20136;-81
2024/01/25 04:16:31;;;;;;;38.78;6.45;;;;;;;4.52;100.00;102911.59;5052620;28;20029;-81
2024/01/25 04:18:57;;;;;;;39.88;5.97;;;;;;;4.50;100.00;102908.00;5066113;28;20079;-81
2024/01/25 04:21:22;;;;;;;47.67;6.97;;;;;;;4.35;100.00;102892.59;5058334;28;20033;-80
2024/01/25 04:23:48;;;;;;;48.28;7.45;;;;;;;4.42;100.00;102912.09;5059519;28;20025;-80
2024/01/25 04:26:15;;;;;;;30.08;6.03;;;;;;;4.37;100.00;102914.53;5055763;28;20041;-80
2024/01/25 04:28:40;;;;;;;34.25;6.18;;;;;;;4.35;100.00;102908.34;5060167;28;20388;-81
2024/01/25 04:31:06;;;;;;;38.17;6.82;;;;;;;4.38;100.00;102907.59;5064691;28;20044;-80
2024/01/25 04:33:31;;;;;;;32.25;5.68;;;;;;;4.31;100.00;102902.09;5051890;28;20079;-80
2024/01/25 04:35:57;;;;;;;28.05;6.00;;;;;;;4.28;100.00;102904.63;5050480;28;20041;-81
2024/01/25 04:38:22;;;;;;;38.67;6.00;;;;;;;4.26;100.00;102915.88;5050700;28;20037;-80
2024/01/25 04:40:48;;;;;;;41.08;6.90;;;;;;;4.24;100.00;102912.31;5053712;28;20083;-81
2024/01/25 04:43:13;;;;;;;31.02;5.57;;;;;;;4.19;100.00;102903.38;5059600;28;20039;-81
2024/01/25 04:45:39;;;;;;;39.92;7.40;;;;;;;4.22;100.00;102906.09;5075687;28;20040;-81
2024/01/25 04:48:06;;;;;;;40.90;6.45;;;;;;;4.20;100.00;102903.41;5073281;28;20059;-80
2024/01/25 04:50:32;;;;;;;47.47;7.53;;;;;;;4.19;100.00;102906.00;5066669;28;20066;-80
2024/01/25 04:52:58;;;;;;;42.30;6.55;;;;;;;4.19;100.00;102895.50;5095847;28;20028;-80
2024/01/25 04:55:23;;;;;;;44.35;6.50;;;;;;;4.18;100.00;102905.13;5090135;28;20547;-80
2024/01/25 04:57:53;;;;;;;40.45;6.63;;;;;;;4.15;100.00;102904.09;5057247;28;20120;-80
2024/01/25 05:00:22;;;;;;;35.40;6.63;;;;;;;4.09;100.00;102907.38;5057549;28;20040;-80
2024/01/25 05:02:48;;;;;;;28.85;4.97;;;;;;;4.01;100.00;102912.34;5085747;28;20059;-80
2024/01/25 05:05:14;;;;;;;37.15;7.07;;;;;;;4.02;100.00;102913.22;5060598;28;20438;-80
2024/01/25 05:07:40;;;;;;;40.33;6.18;;;;;;;4.01;100.00;102912.34;5075068;28;20036;-80
2024/01/25 05:10:06;;;;;;;36.95;6.20;;;;;;;3.99;100.00;102906.13;5074999;28;20090;-80
2024/01/25 05:12:31;;;;;;;46.92;7.43;;;;;;;3.99;100.00;102907.88;5063551;28;20097;-80
2024/01/25 05:14:58;;;;;;;28.08;7.03;;;;;;;3.97;100.00;102907.81;5082630;28;20132;-81
2024/01/25 05:17:23;;;;;;;36.60;7.07;;;;;;;3.94;100.00;102897.19;5058700;28;20580;-80
2024/01/25 05:19:49;;;;;;;42.72;7.38;;;;;;;3.94;100.00;102899.81;5095130;28;20122;-80
2024/01/25 05:22:14;;;;;;;34.85;6.47;;;;;;;3.91;100.00;102894.47;5095078;28;20345;-80
2024/01/25 05:24:40;;;;;;;27.20;5.03;;;;;;;3.88;100.00;102896.94;5094891;28;20170;-80
2024/01/25 05:27:05;;;;;;;36.03;6.20;;;;;;;3.83;100.00;102902.03;5094206;28;20039;-80
2024/01/25 05:29:31;;;;;;;37.05;7.40;;;;;;;3.82;100.00;102899.34;5063071;28;20505;-80
2024/01/25 05:31:57;;;;;;;44.47;8.13;;;;;;;3.78;100.00;102890.47;5082237;28;20036;-79
2024/01/25 05:34:23;;;;;;;34.75;7.45;;;;;;;3.81;100.00;102905.44;5055590;28;20075;-79
2024/01/25 05:36:48;;;;;;;40.83;7.53;;;;;;;3.80;100.00;102908.88;5084649;28;20068;-79
2024/01/25 05:39:14;;;;;;;43.78;6.38;;;;;;;3.75;100.00;102910.44;5092388;28;20117;-78
2024/01/25 05:41:40;;;;;;;43.55;7.43;;;;;;;3.78;100.00;102902.66;5081403;28;20043;-79
2024/01/25 05:44:05;;;;;;;40.60;6.82;;;;;;;3.80;100.00;102904.53;5070430;28;20024;-79
2024/01/25 05:46:31;;;;;;;38.35;6.18;;;;;;;3.78;100.00;102914.03;5094499;28;20115;-79
2024/01/25 05:48:56;;;;;;;28.38;6.13;;;;;;;3.76;100.00;102920.06;5081898;28;20476;-79
2024/01/25 05:51:22;;;;;;;34.15;6.70;;;;;;;3.73;100.00;102920.84;5073225;28;20377;-79
2024/01/25 05:53:47;;;;;;;45.78;6.90;;;;;;;3.73;100.00;102927.81;5063844;28;20135;-79
2024/01/25 05:56:13;;;;;;;47.17;8.30;;;;;;;3.73;100.00;102920.84;5086062;28;20047;-79
2024/01/25 05:58:38;;;;;;;40.25;7.25;;;;;;;3.73;100.00;102923.44;5089929;28;20039;-78
2024/01/25 06:01:04;;;;;;;45.72;7.68;;;;;;;3.72;100.00;102929.53;5073552;28;20040;-78
2024/01/25 06:03:29;;;;;;;30.02;5.93;;;;;;;3.71;100.00;102921.59;5057802;28;20042;-78
2024/01/25 06:05:55;;;;;;;38.70;6.88;;;;;;;3.68;100.00;102922.38;5038859;28;20036;-78
2024/01/25 06:08:20;;;;;;;37.60;8.05;;;;;;;3.69;100.00;102918.06;5058505;28;20047;-78
2024/01/25 06:10:46;;;;;;;41.20;7.47;;;;;;;3.66;100.00;102910.97;5074128;28;20033;-78
2024/01/25 06:13:11;;;;;;;34.53;6.25;;;;;;;3.67;100.00;102921.50;5073030;28;20072;-78
2024/01/25 06:15:38;;;;;;;37.78;6.68;;;;;;;3.65;100.00;102920.53;5073356;28;20039;-78
2024/01/25 06:18:03;;;;;;;36.33;6.78;;;;;;;3.62;100.00;102920.41;5055598;28;20032;-78
2024/01/25 06:20:29;;;;;;;34.75;6.18;;;;;;;3.61;100.00;102917.72;5055634;28;20348;-78
2024/01/25 06:22:54;;;;;;;43.00;7.18;;;;;;;3.58;100.00;102915.88;5073210;28;20047;-78
2024/01/25 06:25:20;;;;;;;33.78;6.30;;;;;;;3.55;100.00;102920.13;5087408;28;20024;-78
2024/01/25 06:27:45;;;;;;;33.55;6.22;;;;;;;3.55;100.00;102918.38;5071646;28;20080;-78
2024/01/25 06:30:11;;;;;;;39.45;7.28;;;;;;;3.52;100.00;102920.88;5081653;28;20046;-78
2024/01/25 06:32:37;;;;;;;33.55;6.15;;;;;;;3.49;100.00;102922.47;5073683;28;20038;-78
2024/01/25 06:35:04;;;;;;;36.65;6.90;;;;;;;3.46;100.00;102936.34;5081671;28;20385;-78
2024/01/25 06:37:29;;;;;;;37.20;7.70;;;;;;;3.43;100.00;102944.06;5063664;28;20067;-78
2024/01/25 06:39:55;;;;;;;30.58;5.97;;;;;;;3.38;100.00;102941.25;5086051;28;20475;-78
2024/01/25 06:42:21;;;;;;;34.40;6.28;;;;;;;3.31;100.00;102949.69;5089476;28;20420;-78
2024/01/25 06:44:47;;;;;;;28.98;6.35;;;;;;;3.21;100.00;102948.44;5084216;28;20456;-79
2024/01/25 06:47:13;;;;;;;42.42;6.97;;;;;;;3.17;100.00;102956.97;5082119;28;20084;-78
2024/01/25 06:49:38;;;;;;;31.85;5.88;;;;;;;3.12;100.00;102958.50;5084207;28;20100;-78
2024/01/25 06:52:04;;;;;;;35.75;6.72;;;;;;;3.07;100.00;102949.56;5084253;28;20126;-78
2024/01/25 06:54:31;;;;;;;36.63;5.90;;;;;;;3.09;100.00;102944.38;5074646;28;20048;-78
2024/01/25 06:56:57;;;;;;;41.42;6.30;;;;;;;3.12;100.00;102952.38;5088858;28;20124;-81
2024/01/25 06:59:24;;;;;;;37.28;7.20;;;;;;;3.10;100.00;102941.84;5073359;28;20169;-80
2024/01/25 07:01:50;;;;;;;34.75;7.10;;;;;;;3.04;100.00;102946.81;5081790;28;20028;-81
2024/01/25 07:04:15;;;;;;;37.00;6.30;;;;;;;2.95;100.00;102942.06;5044388;28;20463;-81
2024/01/25 07:06:41;;;;;;;28.17;5.43;;;;;;;2.86;100.00;102943.41;5068387;28;20116;-81
2024/01/25 07:09:06;;;;;;;35.33;6.35;;;;;;;2.80;100.00;102952.78;5084961;28;20039;-81
2024/01/25 07:11:32;;;;;;;31.30;6.03;;;;;;;2.72;100.00;102945.41;5067967;28;20368;-81
2024/01/25 07:13:57;;;;;;;32.03;7.28;;;;;;;2.61;100.00;102944.06;5074618;28;20040;-81
2024/01/25 07:16:23;;;;;;;30.08;6.47;;;;;;;2.53;100.00;102935.88;5073057;28;20044;-81
2024/01/25 07:18:49;;;;;;;33.38;8.35;;;;;;;2.55;100.00;102932.50;5076015;28;20505;-81
2024/01/25 07:21:14;;;;;;;27.85;6.00;;;;;;;2.64;100.00;102934.59;5083964;28;20036;-82
2024/01/25 07:23:40;;;;;;;40.08;7.65;;;;;;;2.69;100.00;102932.19;5073783;28;20427;-81
2024/01/25 07:26:05;;;;;;;36.38;6.80;;;;;;;2.74;100.00;102935.91;5070474;28;20039;-81
2024/01/25 07:28:31;;;;;;;37.92;8.35;;;;;;;2.74;100.00;102938.53;5053344;28;20531;-81
2024/01/25 07:30:56;;;;;;;35.53;8.00;;;;;;;2.74;100.00;102952.50;5081335;28;20037;-81
2024/01/25 07:33:25;;;;;;;31.27;6.47;;;;;;;2.73;100.00;102973.38;5083605;28;20040;-81
2024/01/25 07:35:50;;;;;;;43.97;7.80;;;;;;;2.75;100.00;102969.09;5081267;28;20052;-80
2024/01/25 07:38:16;;;;;;;38.00;8.73;;;;;;;2.81;100.00;102969.38;5063425;28;20032;-81
2024/01/25 07:40:41;;;;;;;33.47;7.80;;;;;;;2.87;100.00;102966.13;5057181;28;20093;-81
2024/01/25 07:43:07;;;;;;;42.05;7.85;;;;;;;2.90;100.00;102966.28;5074051;28;20033;-81
2024/01/25 07:45:33;;;;;;;31.35;6.43;;;;;;;2.88;100.00;102962.69;5091908;28;20035;-80
2024/01/25 07:47:59;;;;;;;38.70;7.60;;;;;;;2.85;100.00;102963.44;5089155;28;20063;-81
2024/01/25 07:50:24;;;;;;;40.55;7.38;;;;;;;2.88;100.00;102960.06;5084204;28;20037;-81
2024/01/25 07:52:50;;;;;;;37.17;7.72;;;;;;;2.92;100.00;102948.91;5069825;28;20059;-81
2024/01/25 07:55:16;;;;;;;36.45;7.30;;;;;;;2.97;100.00;102943.03;5069305;28;20048;-81
2024/01/25 07:57:41;;;;;;;39.05;7.30;;;;;;;3.00;100.00;102945.78;5072299;28;20051;-81
2024/01/25 08:00:08;;;;;;;39.10;8.05;;;;;;;3.08;100.00;102946.09;5070511;28;20036;-81
2024/01/25 08:02:34;;;;;;;42.90;8.35;;;;;;;3.13;100.00;102957.66;5052807;28;20084;-81
2024/01/25 08:05:00;;;;;;;35.20;7.57;;;;;;;3.15;100.00;102965.59;5051408;28;20036;-81
2024/01/25 08:07:25;;;;;;;38.28;8.35;;;;;;;3.14;100.00;102967.34;5070462;28;20089;-81
2024/01/25 08:09:57;;;;;;;32.55;7.75;;;;;;;3.20;100.00;102974.53;5039264;28;20054;-81
2024/01/25 08:12:24;;;;;;;29.67;6.88;;;;;;;3.23;100.00;102969.44;5049068;28;20116;-81
2024/01/25 08:14:49;;;;;;;40.40;7.78;;;;;;;3.29;100.00;102966.16;5055953;28;20040;-81
2024/01/25 08:17:18;;;;;;;49.90;8.82;;;;;;;3.31;100.00;102957.53;5083265;28;20039;-81
2024/01/25 08:19:45;;;;;;;40.08;8.35;;;;;;;3.35;100.00;102962.09;5082805;28;20035;-81
2024/01/25 08:22:10;;;;;;;47.97;8.20;;;;;;;3.39;100.00;102968.38;5075251;28;20075;-81
2024/01/25 08:24:36;;;;;;;42.05;7.43;;;;;;;3.40;100.00;102972.75;5075478;28;20138;-81
2024/01/25 08:27:02;;;;;;;36.83;7.75;;;;;;;3.43;100.00;102976.38;5089211;28;20090;-81
2024/01/25 08:29:27;;;;;;;50.85;10.60;;;;;;;3.49;100.00;102980.09;5078356;28;20032;-82
2024/01/25 08:31:52;;;;;;;46.20;9.07;;;;;;;3.53;100.00;102963.69;5079087;28;20044;-80
2024/01/25 08:34:18;;;;;;;41.60;8.13;;;;;;;3.55;100.00;102941.97;5072907;28;20056;-80
2024/01/25 08:36:44;;;;;;;40.03;7.63;;;;;;;3.58;100.00;102926.34;5075093;28;20411;-81
2024/01/25 08:39:09;;;;;;;42.60;7.82;;;;;;;3.58;100.00;102931.59;5086221;28;20032;-81
2024/01/25 08:41:35;;;;;;;44.45;7.97;;;;;;;3.62;100.00;102944.00;5072662;28;20032;-81
2024/01/25 08:44:00;;;;;;;43.17;8.50;;;;;;;3.69;100.00;102954.75;5078385;28;20036;-81
2024/01/25 08:46:26;;;;;;;38.83;7.50;;;;;;;3.73;100.00;102949.66;5057236;28;20034;-81
2024/01/25 08:48:52;;;;;;;36.42;8.40;;;;;;;3.79;100.00;102954.28;5091847;28;20047;-81
2024/01/25 08:51:17;;;;;;;42.03;8.45;;;;;;;3.82;100.00;102957.91;5076641;28;20491;-81
2024/01/25 08:53:43;;;;;;;39.65;8.32;;;;;;;3.88;100.00;102966.03;5075119;28;20479;-81
2024/01/25 08:56:09;;;;;;;42.60;8.77;;;;;;;3.91;100.00;102967.88;5081451;28;20960;-81
2024/01/25 08:58:35;;;;;;;37.60;8.93;;;;;;;3.97;100.00;102969.81;5083233;28;20039;-81
2024/01/25 09:01:00;;;;;;;46.15;10.43;;;;;;;4.00;100.00;102967.31;5090064;28;20036;-81
2024/01/25 09:03:26;;;;;;;41.08;8.13;;;;;;;4.02;100.00;102970.91;5079155;28;20426;-81
2024/01/25 09:05:52;;;;;;;42.65;9.52;;;;;;;4.05;100.00;102978.88;5067937;28;20499;-81
2024/01/25 09:08:17;;;;;;;49.92;9.23;;;;;;;4.06;100.00;102975.44;5094933;28;20489;-81
2024/01/25 09:10:44;;;;;;;41.70;8.70;;;;;;;4.11;100.00;102976.50;5088313;28;20143;-81
2024/01/25 09:13:10;;;;;;;43.33;8.32;;;;;;;4.15;100.00;102978.41;5084591;28;20032;-82
2024/01/25 09:15:35;;;;;;;41.65;8.40;;;;;;;4.18;100.00;102983.78;5076851;28;20537;-81
2024/01/25 09:18:01;;;;;;;35.67;8.32;;;;;;;4.21;100.00;102977.75;5074331;28;20036;-82
2024/01/25 09:20:26;;;;;;;45.85;9.77;;;;;;;4.24;100.00;102973.50;5085420;28;20383;-81
2024/01/25 09:22:55;;;;;;;40.35;9.00;;;;;;;4.25;100.00;102971.78;5087508;28;20044;-81
2024/01/25 09:25:21;;;;;;;40.63;8.07;;;;;;;4.34;100.00;102971.25;5081877;28;20039;-81
2024/01/25 09:27:47;;;;;;;47.08;9.35;;;;;;;4.39;100.00;102973.22;5083037;28;20040;-81
2024/01/25 09:30:13;;;;;;;42.88;9.10;;;;;;;4.45;100.00;102970.84;5081237;28;20051;-82
2024/01/25 09:32:38;;;;;;;45.30;10.93;;;;;;;4.51;100.00;102978.03;5093027;28;20036;-82
2024/01/25 09:35:05;;;;;;;35.20;8.57;;;;;;;4.55;100.00;102979.94;5090512;28;20118;-82
2024/01/25 09:37:30;;;;;;;45.55;10.75;;;;;;;4.62;100.00;102967.91;5078624;28;20045;-82
2024/01/25 09:39:58;;;;;;;47.75;8.90;;;;;;;4.67;100.00;102967.28;5074050;28;20040;-82
2024/01/25 09:42:24;;;;;;;45.50;10.07;;;;;;;4.73;100.00;102962.22;5056109;28;20044;-82
2024/01/25 09:44:52;;;;;;;48.30;9.75;;;;;;;4.81;100.00;102970.38;5073835;28;20028;-82
2024/01/25 09:47:19;;;;;;;49.58;10.98;;;;;;;4.87;100.00;102980.19;5074100;28;20045;-82
2024/01/25 09:49:45;;;;;;;45.05;10.52;;;;;;;4.93;100.00;102972.56;5073875;28;20094;-82
2024/01/25 09:52:12;;;;;;;36.80;9.75;;;;;;;4.99;100.00;102978.00;5076388;28;20495;-82
2024/01/25 09:54:38;;;;;;;45.33;10.77;;;;;;;5.05;100.00;102972.09;5080897;28;20048;-82
2024/01/25 09:57:13;;;;;;;41.38;11.40;;;;;;;5.09;100.00;102979.22;5073784;28;20036;-81
2024/01/25 09:59:39;;;;;;;42.95;12.27;;;;;;;5.12;100.00;102974.09;5086085;28;20420;-82
2024/01/25 10:02:04;;;;;;;39.17;10.45;;;;;;;5.15;100.00;102969.84;5079895;28;20036;-82
2024/01/25 10:04:30;;;;;;;34.28;8.88;;;;;;;5.21;100.00;102966.53;5080687;28;20097;-82
2024/01/25 10:06:58;;;;;;;37.20;10.95;;;;;;;5.24;100.00;102955.22;5073242;28;20055;-82
2024/01/25 10:09:24;;;;;;;33.33;11.18;;;;;;;5.27;100.00;102956.25;5073713;28;20040;-82
2024/01/25 10:11:49;;;;;;;40.20;10.60;;;;;;;5.30;100.00;102956.34;5087007;28;20074;-82
2024/01/25 10:14:15;;;;;;;43.75;11.02;;;;;;;5.34;100.00;102947.72;5061320;28;20040;-82
2024/01/25 10:16:40;;;;;;;24.98;9.85;;;;;;;5.38;100.00;102946.06;5077380;28;20036;-82
2024/01/25 10:19:10;;;;;;;37.55;11.00;;;;;;;5.41;100.00;102951.44;5061254;28;20044;-81
2024/01/25 10:21:39;;;;;;;30.55;10.48;;;;;;;5.43;100.00;102955.00;5072761;28;20050;-82
2024/01/25 10:24:07;;;;;;;40.65;11.52;;;;;;;5.47;100.00;102953.38;5081766;28;20479;-82
2024/01/25 10:26:34;;;;;;;35.47;11.48;;;;;;;5.53;100.00;102951.84;5088534;28;20039;-82
2024/01/25 10:29:01;;;;;;;36.25;12.43;;;;;;;5.54;100.00;102945.75;5076970;28;20036;-81
2024/01/25 10:31:28;;;;;;;37.78;11.65;;;;;;;5.56;100.00;102928.31;5073177;28;20063;-82
2024/01/25 10:33:55;;;;;;;35.65;11.18;;;;;;;5.59;100.00;102938.91;5088609;28;20042;-82
2024/01/25 10:36:21;;;;;;;39.20;12.50;;;;;;;5.62;100.00;102939.84;5079337;28;20085;-82
2024/01/25 10:38:48;;;;;;;41.25;12.75;;;;;;;5.65;100.00;102930.31;5062155;28;20119;-82
2024/01/25 10:41:17;;;;;;;32.85;11.05;;;;;;;5.70;100.00;102927.84;5068224;28;20144;-82
2024/01/25 10:43:42;;;;;;;42.20;12.60;;;;;;;5.74;100.00;102919.22;5069549;28;20394;-82
2024/01/25 10:46:08;;;;;;;31.42;10.65;;;;;;;5.78;100.00;102915.81;5075871;28;20033;-82
2024/01/25 10:48:34;;;;;;;34.65;12.05;;;;;;;5.82;100.00;102917.72;5072664;28;20400;-81
2024/01/25 10:51:02;;;;;;;36.53;9.88;;;;;;;5.84;100.00;102921.28;5072690;28;20024;-82
2024/01/25 10:53:34;;;;;;;37.03;12.02;;;;;;;5.86;100.00;102913.41;5076431;28;20136;-82
2024/01/25 10:56:01;;;;;;;40.53;13.15;;;;;;;5.91;100.00;102906.56;5083252;28;20128;-82
2024/01/25 10:58:31;;;;;;;37.38;13.43;;;;;;;5.95;100.00;102903.22;5072288;28;20411;-82
2024/01/25 11:00:58;;;;;;;34.65;11.98;;;;;;;6.01;100.00;102898.16;5063805;28;20032;-82
2024/01/25 11:03:32;;;;;;;42.40;12.57;;;;;;;6.07;100.00;102907.97;5091668;28;20169;-82
2024/01/25 11:06:09;;;;;;;44.58;13.82;;;;;;;6.10;100.00;102903.69;5080995;28;20072;-83
2024/01/25 11:08:37;;;;;;;40.60;13.45;;;;;;;6.12;100.00;102898.47;5078420;28;20150;-83
2024/01/25 11:11:05;;;;;;;44.38;14.05;;;;;;;6.13;100.00;102903.78;5084578;28;20033;-82